aviador You're here:

ZYTL Decoded Metar

DALIAN in CHINA
Report Time2017-07-25 20:30:00
UTC Time2017-07-25 20:45:04
Flight Rules vfr VFR
Wind280° at 4 kt
W.Decomp.*RWY 28: 4.0 kt HW 0.6 kt RCW
W.Rank280° ranks 5
Current wind is below 280° avg. (6.4)
Visibility9999 m
Phenomena:N/A
Clouds:N/A
Expected CloudBase > 2,400 ft AGL from Temp-Dew spread
CeilingNone
Temp21°C (ISA +7)
Dew Point15°C (69% RH)
QNH1007 hPa
Density Alt1,522 ft
Elevation318 ft
Report Wrong Elevation
Raw Report
ZYTL 252030Z 28002MPS CAVOK 21/15 Q1007 NOSIG=

Extra information for ZYTL:More info

Metar Taf Metar & Taf Last 4 Metars F.Rules Stats Wind Profile Meteogram Temp Stats Airport Information Weather charts Add Link Nearby VenuesMetar ALERT Operation Metar Decoded Social comments